»·PEaware :: UAL1135 KSFO-KDEN

UAL1135 :: KSFO-KDEN

FLIGHT INFORMATION

Flight Status: Arrived
Operator:
United Airlines
More flights by this operator :: More flights under this callsign
Pilot: Anonymous 16342 (16342)
Aircraft: BOEING 777-200
(B772)
More flights by this aircraft type
Origin: KSFO San Francisco Intl
United States
Destination: KDEN Denver Intl
United States
More flights between these airports :: More routes between these airports
Route: TRUKN2 SYRAH Q128 JSICA MLF J28 HVE WOLLF TELLR2
File this flight plan on PilotEdge
Remarks:
Altitude:
(Current/Filed)
35,000ft
Speed:
(Current/Filed)
365kts
Departed: 21-Nov-19 09:19 AM
Arrived: 21-Nov-19 11:29 AM
Distance/Time
Traveled:
837nm/2:10
Distance/Time
To Go:
Arrived

Flight Plot

Page will automatically refresh every two minutes.


Map Options




Map Legend


Flown Route
Filed Route
Departure Airport
Arrival Airport
Navaid (VOR, NDB)
Fix

Horizontal Profiles

Position Reports

Time Latitude Longitude Heading Altitude Ground
Speed
21-Nov-19 08:43 37.611038 -122.389793 12 26ft 0kts
21-Nov-19 08:44 37.611038 -122.389793 12 26ft 0kts
21-Nov-19 08:45 37.611038 -122.389793 12 26ft 0kts
21-Nov-19 08:46 37.611038 -122.389793 12 26ft 0kts
21-Nov-19 08:47 37.611038 -122.389793 12 26ft 0kts
21-Nov-19 08:48 37.611038 -122.389793 12 26ft 0kts
21-Nov-19 08:49 37.611038 -122.389793 12 26ft 0kts
21-Nov-19 08:51 37.611038 -122.389793 12 26ft 0kts
21-Nov-19 08:52 37.611038 -122.389793 12 26ft 0kts
21-Nov-19 08:53 37.611038 -122.389793 12 26ft 0kts
21-Nov-19 08:54 37.611038 -122.389793 12 26ft 0kts
21-Nov-19 08:55 37.611038 -122.389793 12 26ft 0kts
21-Nov-19 08:56 37.611038 -122.389793 12 26ft 0kts
21-Nov-19 08:57 37.611038 -122.389793 12 26ft 0kts
21-Nov-19 08:58 37.611038 -122.389793 12 26ft 0kts
21-Nov-19 08:59 37.611038 -122.389793 12 26ft 0kts
21-Nov-19 09:00 37.611038 -122.389793 12 26ft 0kts
21-Nov-19 09:01 37.611038 -122.389793 12 26ft 0kts
21-Nov-19 09:02 37.611038 -122.389793 12 26ft 0kts
21-Nov-19 09:03 37.611038 -122.389793 12 26ft 0kts
21-Nov-19 09:04 37.611038 -122.389793 12 26ft 0kts
21-Nov-19 09:05 37.611038 -122.389793 12 26ft 0kts
21-Nov-19 09:06 37.611038 -122.389793 12 26ft 0kts
21-Nov-19 09:07 37.610637 -122.390003 45 26ft 2kts
21-Nov-19 09:08 37.610546 -122.390650 124 26ft 2kts
21-Nov-19 09:09 37.610583 -122.390718 128 26ft 0kts
21-Nov-19 09:10 37.610583 -122.390718 128 26ft 0kts
21-Nov-19 09:10 37.610472 -122.390542 128 26ft 4kts
21-Nov-19 09:12 37.610991 -122.388446 56 26ft 9kts
21-Nov-19 09:12 37.610165 -122.385606 117 26ft 10kts
21-Nov-19 09:14 37.607014 -122.384885 160 26ft 14kts
21-Nov-19 09:15 37.605149 -122.382089 105 26ft 6kts
21-Nov-19 09:15 37.605469 -122.379751 47 26ft 0kts
21-Nov-19 09:17 37.605976 -122.379355 3 26ft 6kts
21-Nov-19 09:17 37.606376 -122.379611 304 26ft 0kts
21-Nov-19 09:18 37.609370 -122.378959 27 26ft 58kts
21-Nov-19 09:19 37.649553 -122.345453 50 3668ft 213kts
21-Nov-19 09:20 37.687756 -122.272018 57 7484ft 273kts
21-Nov-19 09:21 37.731374 -122.188253 54 11606ft 306kts
21-Nov-19 09:22 37.783138 -122.088207 55 14735ft 364kts
21-Nov-19 09:23 37.829701 -121.971623 71 18746ft 385kts
21-Nov-19 09:24 37.857417 -121.835826 76 22305ft 408kts
21-Nov-19 09:25 37.883668 -121.692711 76 25440ft 431kts
21-Nov-19 09:26 37.911486 -121.541337 74 28400ft 451kts
21-Nov-19 09:27 37.941096 -121.382798 73 31107ft 468kts
21-Nov-19 09:28 37.969841 -121.221945 72 33823ft 470kts
21-Nov-19 09:29 37.998492 -121.057159 74 34939ft 492kts
21-Nov-19 09:30 38.023460 -120.892350 74 34941ft 468kts
21-Nov-19 09:31 38.047889 -120.730130 74 34947ft 468kts
21-Nov-19 09:32 38.072907 -120.567971 74 34949ft 467kts
21-Nov-19 09:33 38.097596 -120.405629 75 34952ft 466kts
21-Nov-19 09:34 38.121630 -120.244426 75 34950ft 466kts
21-Nov-19 09:35 38.145552 -120.082236 75 34950ft 466kts
21-Nov-19 09:36 38.169205 -119.920225 75 34951ft 465kts
21-Nov-19 09:37 38.192558 -119.758642 75 34953ft 465kts
21-Nov-19 09:38 38.215755 -119.596499 75 34961ft 464kts
21-Nov-19 09:39 38.238546 -119.435565 75 34966ft 462kts
21-Nov-19 09:40 38.261046 -119.275014 76 34972ft 459kts
21-Nov-19 09:41 38.283193 -119.115349 76 34978ft 456kts
21-Nov-19 09:42 38.304886 -118.957275 76 34988ft 454kts
21-Nov-19 09:43 38.326392 -118.799016 76 34992ft 452kts
21-Nov-19 09:44 38.347496 -118.641988 76 34995ft 450kts
21-Nov-19 09:45 38.368393 -118.484947 76 34996ft 448kts
21-Nov-19 09:46 38.388968 -118.328622 76 34994ft 447kts
21-Nov-19 09:47 38.409331 -118.172251 76 34990ft 447kts
21-Nov-19 09:48 38.429514 -118.015577 76 34983ft 446kts
21-Nov-19 09:49 38.449404 -117.859479 76 34977ft 445kts
21-Nov-19 09:50 38.469009 -117.703930 77 34972ft 445kts
21-Nov-19 09:51 38.488820 -117.547781 77 34971ft 444kts
21-Nov-19 09:52 38.507750 -117.392124 77 34973ft 444kts
21-Nov-19 09:53 38.521594 -117.235075 85 34972ft 449kts
21-Nov-19 09:54 38.516845 -117.075215 88 34970ft 450kts
21-Nov-19 09:55 38.512186 -116.915578 88 34970ft 450kts
21-Nov-19 09:56 38.508676 -116.755475 88 34969ft 451kts
21-Nov-19 09:57 38.505062 -116.595102 88 34967ft 451kts
21-Nov-19 09:58 38.500969 -116.434871 89 34962ft 452kts
21-Nov-19 09:59 38.496627 -116.274872 89 34961ft 453kts
21-Nov-19 10:00 38.492790 -116.140010 89 34959ft 453kts
21-Nov-19 10:01 38.488004 -115.978863 89 34959ft 454kts
21-Nov-19 10:02 38.483013 -115.818212 89 34954ft 453kts
21-Nov-19 10:03 38.477791 -115.657277 90 34953ft 454kts
21-Nov-19 10:04 38.472363 -115.496854 90 34952ft 453kts
21-Nov-19 10:05 38.466714 -115.336244 90 34952ft 452kts
21-Nov-19 10:06 38.460860 -115.176079 90 34954ft 453kts
21-Nov-19 10:07 38.454739 -115.014710 91 34956ft 454kts
21-Nov-19 10:08 38.448422 -114.854021 91 34958ft 455kts
21-Nov-19 10:09 38.441865 -114.692836 91 34965ft 455kts
21-Nov-19 10:10 38.435072 -114.531377 91 34965ft 457kts
21-Nov-19 10:11 38.428028 -114.369168 92 34967ft 457kts
21-Nov-19 10:12 38.420766 -114.207155 92 34961ft 458kts
21-Nov-19 10:13 38.413273 -114.045008 92 34961ft 459kts
21-Nov-19 10:14 38.405525 -113.882186 92 34962ft 460kts
21-Nov-19 10:15 38.397574 -113.719882 93 34963ft 459kts
21-Nov-19 10:16 38.389381 -113.557225 93 34964ft 458kts
21-Nov-19 10:17 38.381184 -113.395630 92 34966ft 457kts
21-Nov-19 10:18 38.372688 -113.233555 93 34968ft 457kts
21-Nov-19 10:19 38.363650 -113.072061 94 34969ft 457kts
21-Nov-19 10:20 38.361811 -112.910227 87 34969ft 458kts
21-Nov-19 10:21 38.368441 -112.747992 88 34969ft 459kts
21-Nov-19 10:22 38.373407 -112.584752 88 34970ft 461kts
21-Nov-19 10:23 38.378958 -112.421323 88 34970ft 463kts
21-Nov-19 10:24 38.383765 -112.257158 89 34972ft 464kts
21-Nov-19 10:25 38.388241 -112.092584 89 34978ft 465kts
21-Nov-19 10:26 38.392495 -111.927198 89 34981ft 466kts
21-Nov-19 10:27 38.396501 -111.762389 89 34987ft 466kts
21-Nov-19 10:28 38.400278 -111.597489 89 34989ft 465kts
21-Nov-19 10:29 38.403826 -111.432475 90 34992ft 464kts
21-Nov-19 10:30 38.407134 -111.268048 90 34999ft 463kts
21-Nov-19 10:31 38.410230 -111.104307 90 35000ft 464kts
21-Nov-19 10:32 38.413361 -110.939947 91 35000ft 464kts
21-Nov-19 10:33 38.415738 -110.774814 91 34999ft 465kts
21-Nov-19 10:34 38.418788 -110.609536 91 34999ft 468kts
21-Nov-19 10:35 38.422311 -110.443144 91 34998ft 470kts
21-Nov-19 10:36 38.425492 -110.276269 91 34993ft 471kts
21-Nov-19 10:37 38.429473 -110.108542 91 34978ft 473kts
21-Nov-19 10:38 38.432722 -109.941403 92 34976ft 474kts
21-Nov-19 10:39 38.435628 -109.772675 92 34974ft 474kts
21-Nov-19 10:40 38.438265 -109.604760 92 34974ft 473kts
21-Nov-19 10:41 38.440644 -109.438090 92 34983ft 472kts
21-Nov-19 10:42 38.442799 -109.270363 92 34993ft 471kts
21-Nov-19 10:43 38.444707 -109.103375 92 35000ft 471kts
21-Nov-19 10:44 38.446379 -108.936317 93 35007ft 471kts
21-Nov-19 10:45 38.447815 -108.769105 93 35012ft 472kts
21-Nov-19 10:46 38.449016 -108.601610 93 35013ft 474kts
21-Nov-19 10:47 38.449983 -108.433257 94 35016ft 475kts
21-Nov-19 10:48 38.450711 -108.263983 94 35015ft 476kts
21-Nov-19 10:49 38.451197 -108.094950 94 35017ft 477kts
21-Nov-19 10:50 38.451825 -107.925316 94 35020ft 479kts
21-Nov-19 10:51 38.451621 -107.754828 95 35019ft 479kts
21-Nov-19 10:52 38.457517 -107.584701 80 35019ft 490kts
21-Nov-19 10:53 38.523056 -107.430474 60 35018ft 499kts
21-Nov-19 10:54 38.593452 -107.278001 63 35022ft 498kts
21-Nov-19 10:55 38.662236 -107.124038 63 35019ft 498kts
21-Nov-19 10:56 38.727637 -106.977519 63 35019ft 499kts
21-Nov-19 10:57 38.795490 -106.823421 63 34558ft 483kts
21-Nov-19 10:58 38.859310 -106.677655 63 33551ft 459kts
21-Nov-19 10:59 38.923543 -106.539231 62 32202ft 446kts
21-Nov-19 11:00 38.986042 -106.403504 63 30840ft 434kts
21-Nov-19 11:01 39.046269 -106.271911 63 29486ft 421kts
21-Nov-19 11:02 39.104693 -106.142537 63 28057ft 412kts
21-Nov-19 11:03 39.160745 -106.016087 62 26629ft 403kts
21-Nov-19 11:04 39.216207 -105.890988 63 25114ft 398kts
21-Nov-19 11:05 39.270026 -105.767909 62 23757ft 390kts
21-Nov-19 11:06 39.322606 -105.647732 62 22491ft 379kts
21-Nov-19 11:08 39.373946 -105.530387 62 21231ft 370kts
21-Nov-19 11:09 39.399409 -105.407732 89 19244ft 344kts
21-Nov-19 11:10 39.403716 -105.287601 88 17292ft 315kts
21-Nov-19 11:11 39.409777 -105.182502 76 15908ft 283kts
21-Nov-19 11:12 39.459212 -105.114450 39 13694ft 291kts
21-Nov-19 11:13 39.520690 -105.048174 38 11600ft 282kts
21-Nov-19 11:14 39.580387 -104.984551 38 10973ft 278kts
21-Nov-19 11:15 39.638894 -104.922468 38 10979ft 278kts
21-Nov-19 11:16 39.698782 -104.858914 38 10993ft 278kts
21-Nov-19 11:17 39.769203 -104.829625 359 11005ft 275kts
21-Nov-19 11:18 39.845874 -104.829333 358 11010ft 275kts
21-Nov-19 11:19 39.922256 -104.828966 358 11020ft 275kts
21-Nov-19 11:20 39.998991 -104.828610 358 11029ft 275kts
21-Nov-19 11:21 40.073539 -104.828438 358 10454ft 261kts
21-Nov-19 11:22 40.142205 -104.813962 45 9127ft 249kts
21-Nov-19 11:23 40.149857 -104.730161 107 8054ft 235kts
21-Nov-19 11:24 40.100322 -104.688245 170 8012ft 201kts
21-Nov-19 11:25 40.045032 -104.685132 179 8012ft 201kts
21-Nov-19 11:26 39.988997 -104.685742 179 7225ft 201kts
21-Nov-19 11:27 39.938600 -104.686333 179 6243ft 159kts
21-Nov-19 11:28 39.893977 -104.686852 179 5446ft 162kts
21-Nov-19 11:28 39.877756 -104.686598 174 5444ft 26kts
21-Nov-19 11:30 39.875831 -104.686323 173 5444ft 0kts
21-Nov-19 11:30 39.875769 -104.686313 173 5444ft 5kts
21-Nov-19 11:31 39.875506 -104.686272 173 5444ft 7kts
21-Nov-19 11:33 39.874017 -104.686023 166 5444ft 6kts
21-Nov-19 11:33 39.872722 -104.685642 169 5444ft 0kts
21-Nov-19 11:34 39.872048 -104.685481 171 5444ft 0kts
21-Nov-19 11:35 39.872043 -104.685480 171 5444ft 0kts
21-Nov-19 11:36 39.871851 -104.685441 170 5444ft 2kts
21-Nov-19 11:37 39.871679 -104.685331 146 5444ft 6kts
21-Nov-19 11:38 39.869664 -104.683860 184 5444ft 15kts
21-Nov-19 11:39 39.865727 -104.683900 181 5444ft 19kts
21-Nov-19 11:40 39.861604 -104.684006 180 5444ft 11kts
21-Nov-19 11:41 39.858672 -104.683981 179 5444ft 10kts
21-Nov-19 11:42 39.856575 -104.682992 62 5444ft 7kts

Navigation Log

Ident Type
Flight plan parsing failed, navigation log unavailable